sensor_id;sensor_type;location;lat;lon;timestamp;P1;durP1;ratioP1;P2;durP2;ratioP2
41101;SDS011;26845;50.190;19.178;2023-03-12T00:00:29;21.20;;;9.70;;
41101;SDS011;26845;50.190;19.178;2023-03-12T00:02:55;18.30;;;9.40;;
41101;SDS011;26845;50.190;19.178;2023-03-12T00:05:21;17.20;;;8.90;;
41101;SDS011;26845;50.190;19.178;2023-03-12T00:07:50;18.40;;;9.60;;
41101;SDS011;26845;50.190;19.178;2023-03-12T00:10:16;17.80;;;9.40;;
41101;SDS011;26845;50.190;19.178;2023-03-12T00:12:44;12.70;;;8.20;;
41101;SDS011;26845;50.190;19.178;2023-03-12T00:15:10;15.10;;;8.40;;
41101;SDS011;26845;50.190;19.178;2023-03-12T00:17:38;18.00;;;9.50;;
41101;SDS011;26845;50.190;19.178;2023-03-12T00:20:04;17.10;;;9.20;;
41101;SDS011;26845;50.190;19.178;2023-03-12T00:22:34;13.90;;;9.10;;
41101;SDS011;26845;50.190;19.178;2023-03-12T00:25:00;20.50;;;9.20;;
41101;SDS011;26845;50.190;19.178;2023-03-12T00:27:26;15.40;;;8.60;;
41101;SDS011;26845;50.190;19.178;2023-03-12T00:29:52;18.40;;;9.10;;
41101;SDS011;26845;50.190;19.178;2023-03-12T00:32:18;16.40;;;9.50;;
41101;SDS011;26845;50.190;19.178;2023-03-12T00:34:54;17.20;;;9.00;;
41101;SDS011;26845;50.190;19.178;2023-03-12T00:37:20;12.90;;;8.10;;
41101;SDS011;26845;50.190;19.178;2023-03-12T00:39:46;13.80;;;8.50;;
41101;SDS011;26845;50.190;19.178;2023-03-12T00:42:12;14.10;;;9.00;;
41101;SDS011;26845;50.190;19.178;2023-03-12T00:44:39;13.00;;;8.00;;
41101;SDS011;26845;50.190;19.178;2023-03-12T00:47:05;14.40;;;9.20;;
41101;SDS011;26845;50.190;19.178;2023-03-12T00:49:31;13.70;;;8.60;;
41101;SDS011;26845;50.190;19.178;2023-03-12T00:51:57;15.70;;;9.50;;
41101;SDS011;26845;50.190;19.178;2023-03-12T00:54:25;14.90;;;9.00;;
41101;SDS011;26845;50.190;19.178;2023-03-12T00:56:50;14.90;;;8.70;;
41101;SDS011;26845;50.190;19.178;2023-03-12T00:59:17;17.30;;;8.80;;
41101;SDS011;26845;50.190;19.178;2023-03-12T01:01:43;17.10;;;9.80;;
41101;SDS011;26845;50.190;19.178;2023-03-12T01:04:10;17.30;;;9.10;;
41101;SDS011;26845;50.190;19.178;2023-03-12T01:06:36;16.40;;;10.10;;
41101;SDS011;26845;50.190;19.178;2023-03-12T01:09:03;18.40;;;10.20;;
41101;SDS011;26845;50.190;19.178;2023-03-12T01:11:30;12.20;;;6.60;;
41101;SDS011;26845;50.190;19.178;2023-03-12T01:13:57;20.60;;;9.50;;
41101;SDS011;26845;50.190;19.178;2023-03-12T01:16:24;14.20;;;8.50;;
41101;SDS011;26845;50.190;19.178;2023-03-12T01:18:55;19.40;;;11.50;;
41101;SDS011;26845;50.190;19.178;2023-03-12T01:21:22;15.00;;;8.20;;
41101;SDS011;26845;50.190;19.178;2023-03-12T01:23:49;17.00;;;8.50;;
41101;SDS011;26845;50.190;19.178;2023-03-12T01:26:15;9.20;;;5.80;;
41101;SDS011;26845;50.190;19.178;2023-03-12T01:28:42;13.10;;;7.80;;
41101;SDS011;26845;50.190;19.178;2023-03-12T01:31:09;14.40;;;7.80;;
41101;SDS011;26845;50.190;19.178;2023-03-12T01:33:36;17.70;;;9.10;;
41101;SDS011;26845;50.190;19.178;2023-03-12T01:36:02;15.00;;;8.50;;
41101;SDS011;26845;50.190;19.178;2023-03-12T01:38:29;16.60;;;8.20;;
41101;SDS011;26845;50.190;19.178;2023-03-12T01:40:55;14.30;;;8.30;;
41101;SDS011;26845;50.190;19.178;2023-03-12T01:43:29;13.40;;;8.70;;
41101;SDS011;26845;50.190;19.178;2023-03-12T01:48:37;15.10;;;8.40;;
41101;SDS011;26845;50.190;19.178;2023-03-12T01:51:07;14.70;;;8.30;;
41101;SDS011;26845;50.190;19.178;2023-03-12T01:53:35;16.40;;;8.20;;
41101;SDS011;26845;50.190;19.178;2023-03-12T01:56:02;14.80;;;8.80;;
41101;SDS011;26845;50.190;19.178;2023-03-12T01:58:29;13.60;;;8.70;;
41101;SDS011;26845;50.190;19.178;2023-03-12T02:03:36;14.80;;;8.40;;
41101;SDS011;26845;50.190;19.178;2023-03-12T02:06:03;15.80;;;8.50;;
41101;SDS011;26845;50.190;19.178;2023-03-12T02:08:37;16.50;;;9.70;;
41101;SDS011;26845;50.190;19.178;2023-03-12T02:11:06;18.80;;;8.50;;
41101;SDS011;26845;50.190;19.178;2023-03-12T02:13:32;16.20;;;9.30;;
41101;SDS011;26845;50.190;19.178;2023-03-12T02:15:58;15.10;;;8.40;;
41101;SDS011;26845;50.190;19.178;2023-03-12T02:18:24;14.10;;;9.00;;
41101;SDS011;26845;50.190;19.178;2023-03-12T02:23:37;11.20;;;7.30;;
41101;SDS011;26845;50.190;19.178;2023-03-12T02:26:28;15.50;;;9.50;;
41101;SDS011;26845;50.190;19.178;2023-03-12T02:28:55;15.20;;;9.20;;
41101;SDS011;26845;50.190;19.178;2023-03-12T02:31:25;11.60;;;7.60;;
41101;SDS011;26845;50.190;19.178;2023-03-12T02:33:56;14.90;;;8.60;;
41101;SDS011;26845;50.190;19.178;2023-03-12T02:36:22;17.60;;;9.40;;
41101;SDS011;26845;50.190;19.178;2023-03-12T02:38:49;12.90;;;7.90;;
41101;SDS011;26845;50.190;19.178;2023-03-12T02:44:35;12.80;;;7.00;;
41101;SDS011;26845;50.190;19.178;2023-03-12T02:47:02;12.80;;;7.80;;
41101;SDS011;26845;50.190;19.178;2023-03-12T02:49:31;15.70;;;9.10;;
41101;SDS011;26845;50.190;19.178;2023-03-12T02:54:25;15.30;;;8.30;;
41101;SDS011;26845;50.190;19.178;2023-03-12T02:56:51;17.90;;;8.90;;
41101;SDS011;26845;50.190;19.178;2023-03-12T02:59:17;16.30;;;8.70;;
41101;SDS011;26845;50.190;19.178;2023-03-12T03:01:57;15.40;;;9.00;;
41101;SDS011;26845;50.190;19.178;2023-03-12T03:04:24;11.20;;;6.80;;
41101;SDS011;26845;50.190;19.178;2023-03-12T03:06:50;14.30;;;8.90;;
41101;SDS011;26845;50.190;19.178;2023-03-12T03:09:16;14.30;;;8.10;;
41101;SDS011;26845;50.190;19.178;2023-03-12T03:11:43;16.00;;;8.50;;
41101;SDS011;26845;50.190;19.178;2023-03-12T03:14:09;19.10;;;9.90;;
41101;SDS011;26845;50.190;19.178;2023-03-12T03:16:35;16.00;;;9.30;;
41101;SDS011;26845;50.190;19.178;2023-03-12T03:19:02;19.10;;;10.30;;
41101;SDS011;26845;50.190;19.178;2023-03-12T03:21:28;16.70;;;9.30;;
41101;SDS011;26845;50.190;19.178;2023-03-12T03:23:54;20.10;;;10.00;;
41101;SDS011;26845;50.190;19.178;2023-03-12T03:26:21;16.10;;;9.60;;
41101;SDS011;26845;50.190;19.178;2023-03-12T03:28:48;19.20;;;10.60;;
41101;SDS011;26845;50.190;19.178;2023-03-12T03:31:15;20.30;;;10.30;;
41101;SDS011;26845;50.190;19.178;2023-03-12T03:33:41;16.70;;;9.70;;
41101;SDS011;26845;50.190;19.178;2023-03-12T03:36:08;20.30;;;10.40;;
41101;SDS011;26845;50.190;19.178;2023-03-12T03:38:36;16.70;;;9.10;;
41101;SDS011;26845;50.190;19.178;2023-03-12T03:41:02;15.60;;;9.40;;
41101;SDS011;26845;50.190;19.178;2023-03-12T03:43:28;16.70;;;9.40;;
41101;SDS011;26845;50.190;19.178;2023-03-12T03:45:58;16.40;;;8.90;;
41101;SDS011;26845;50.190;19.178;2023-03-12T03:48:25;19.80;;;11.30;;
41101;SDS011;26845;50.190;19.178;2023-03-12T03:50:51;18.40;;;10.30;;
41101;SDS011;26845;50.190;19.178;2023-03-12T03:53:17;20.20;;;9.20;;
41101;SDS011;26845;50.190;19.178;2023-03-12T03:55:44;16.30;;;9.60;;
41101;SDS011;26845;50.190;19.178;2023-03-12T03:58:10;19.00;;;10.50;;
41101;SDS011;26845;50.190;19.178;2023-03-12T04:00:37;18.70;;;10.90;;
41101;SDS011;26845;50.190;19.178;2023-03-12T04:03:03;11.20;;;6.40;;
41101;SDS011;26845;50.190;19.178;2023-03-12T04:05:29;20.00;;;9.70;;
41101;SDS011;26845;50.190;19.178;2023-03-12T04:07:55;21.20;;;11.80;;
41101;SDS011;26845;50.190;19.178;2023-03-12T04:10:22;24.60;;;11.70;;
41101;SDS011;26845;50.190;19.178;2023-03-12T04:12:49;22.60;;;11.70;;
41101;SDS011;26845;50.190;19.178;2023-03-12T04:15:17;20.60;;;11.70;;
41101;SDS011;26845;50.190;19.178;2023-03-12T04:17:44;26.70;;;12.90;;
41101;SDS011;26845;50.190;19.178;2023-03-12T04:20:10;24.80;;;13.00;;
41101;SDS011;26845;50.190;19.178;2023-03-12T04:22:36;23.60;;;12.70;;
41101;SDS011;26845;50.190;19.178;2023-03-12T04:25:03;17.00;;;9.70;;
41101;SDS011;26845;50.190;19.178;2023-03-12T04:27:31;24.70;;;13.10;;
41101;SDS011;26845;50.190;19.178;2023-03-12T04:29:58;22.70;;;12.40;;
41101;SDS011;26845;50.190;19.178;2023-03-12T04:32:24;19.20;;;10.20;;
41101;SDS011;26845;50.190;19.178;2023-03-12T04:34:50;17.90;;;10.30;;
41101;SDS011;26845;50.190;19.178;2023-03-12T04:37:16;24.10;;;14.00;;
41101;SDS011;26845;50.190;19.178;2023-03-12T04:39:43;21.90;;;11.90;;
41101;SDS011;26845;50.190;19.178;2023-03-12T04:42:09;19.80;;;10.80;;
41101;SDS011;26845;50.190;19.178;2023-03-12T04:44:35;22.90;;;12.20;;
41101;SDS011;26845;50.190;19.178;2023-03-12T04:47:02;21.50;;;11.60;;
41101;SDS011;26845;50.190;19.178;2023-03-12T04:49:28;19.70;;;11.90;;
41101;SDS011;26845;50.190;19.178;2023-03-12T04:51:54;19.90;;;10.10;;
41101;SDS011;26845;50.190;19.178;2023-03-12T04:54:20;21.10;;;10.40;;
41101;SDS011;26845;50.190;19.178;2023-03-12T04:56:47;22.40;;;12.70;;
41101;SDS011;26845;50.190;19.178;2023-03-12T04:59:14;20.60;;;10.00;;
41101;SDS011;26845;50.190;19.178;2023-03-12T05:01:40;22.50;;;11.20;;
41101;SDS011;26845;50.190;19.178;2023-03-12T05:04:07;22.20;;;11.80;;
41101;SDS011;26845;50.190;19.178;2023-03-12T05:06:33;22.90;;;11.20;;
41101;SDS011;26845;50.190;19.178;2023-03-12T05:08:59;17.60;;;9.80;;
41101;SDS011;26845;50.190;19.178;2023-03-12T05:11:26;21.20;;;10.80;;
41101;SDS011;26845;50.190;19.178;2023-03-12T05:13:55;24.90;;;13.00;;
41101;SDS011;26845;50.190;19.178;2023-03-12T05:16:20;19.70;;;11.60;;
41101;SDS011;26845;50.190;19.178;2023-03-12T05:18:47;27.70;;;12.90;;
41101;SDS011;26845;50.190;19.178;2023-03-12T05:21:15;24.40;;;12.00;;
41101;SDS011;26845;50.190;19.178;2023-03-12T05:23:44;22.00;;;11.00;;
41101;SDS011;26845;50.190;19.178;2023-03-12T05:26:20;15.30;;;7.70;;
41101;SDS011;26845;50.190;19.178;2023-03-12T05:28:48;20.80;;;10.30;;
41101;SDS011;26845;50.190;19.178;2023-03-12T05:31:15;18.60;;;11.00;;
41101;SDS011;26845;50.190;19.178;2023-03-12T05:33:41;18.10;;;9.90;;
41101;SDS011;26845;50.190;19.178;2023-03-12T05:36:08;15.50;;;6.10;;
41101;SDS011;26845;50.190;19.178;2023-03-12T05:38:34;21.30;;;10.50;;
41101;SDS011;26845;50.190;19.178;2023-03-12T05:41:00;18.20;;;10.50;;
41101;SDS011;26845;50.190;19.178;2023-03-12T05:43:27;18.80;;;10.10;;
41101;SDS011;26845;50.190;19.178;2023-03-12T05:45:58;19.20;;;9.60;;
41101;SDS011;26845;50.190;19.178;2023-03-12T05:48:25;22.10;;;10.70;;
41101;SDS011;26845;50.190;19.178;2023-03-12T05:50:53;17.70;;;9.00;;
41101;SDS011;26845;50.190;19.178;2023-03-12T05:53:18;18.40;;;9.90;;
41101;SDS011;26845;50.190;19.178;2023-03-12T05:55:44;18.20;;;9.00;;
41101;SDS011;26845;50.190;19.178;2023-03-12T05:58:10;14.60;;;7.40;;
41101;SDS011;26845;50.190;19.178;2023-03-12T06:00:37;22.50;;;10.50;;
41101;SDS011;26845;50.190;19.178;2023-03-12T06:03:03;21.70;;;9.30;;
41101;SDS011;26845;50.190;19.178;2023-03-12T06:05:30;17.80;;;8.60;;
41101;SDS011;26845;50.190;19.178;2023-03-12T06:07:57;16.00;;;9.00;;
41101;SDS011;26845;50.190;19.178;2023-03-12T06:10:23;17.90;;;9.40;;
41101;SDS011;26845;50.190;19.178;2023-03-12T06:12:49;18.10;;;10.10;;
41101;SDS011;26845;50.190;19.178;2023-03-12T06:15:15;19.90;;;10.30;;
41101;SDS011;26845;50.190;19.178;2023-03-12T06:17:42;18.70;;;10.00;;
41101;SDS011;26845;50.190;19.178;2023-03-12T06:20:08;11.70;;;6.00;;
41101;SDS011;26845;50.190;19.178;2023-03-12T06:22:34;21.90;;;10.20;;
41101;SDS011;26845;50.190;19.178;2023-03-12T06:25:03;16.70;;;9.70;;
41101;SDS011;26845;50.190;19.178;2023-03-12T06:27:30;12.20;;;7.30;;
41101;SDS011;26845;50.190;19.178;2023-03-12T06:29:57;13.50;;;8.70;;
41101;SDS011;26845;50.190;19.178;2023-03-12T06:32:23;13.70;;;8.00;;
41101;SDS011;26845;50.190;19.178;2023-03-12T06:34:49;13.50;;;7.70;;
41101;SDS011;26845;50.190;19.178;2023-03-12T06:37:15;14.00;;;6.30;;
41101;SDS011;26845;50.190;19.178;2023-03-12T06:39:41;9.50;;;5.00;;
41101;SDS011;26845;50.190;19.178;2023-03-12T06:42:07;9.40;;;5.70;;
41101;SDS011;26845;50.190;19.178;2023-03-12T06:44:33;11.90;;;7.00;;
41101;SDS011;26845;50.190;19.178;2023-03-12T06:47:00;11.70;;;6.60;;
41101;SDS011;26845;50.190;19.178;2023-03-12T06:49:26;13.00;;;7.40;;
41101;SDS011;26845;50.190;19.178;2023-03-12T06:51:56;14.10;;;7.80;;
41101;SDS011;26845;50.190;19.178;2023-03-12T06:54:22;11.50;;;6.90;;
41101;SDS011;26845;50.190;19.178;2023-03-12T06:56:48;12.80;;;5.80;;
41101;SDS011;26845;50.190;19.178;2023-03-12T06:59:14;10.40;;;4.80;;
41101;SDS011;26845;50.190;19.178;2023-03-12T07:01:41;12.70;;;6.80;;
41101;SDS011;26845;50.190;19.178;2023-03-12T07:04:07;11.80;;;6.60;;
41101;SDS011;26845;50.190;19.178;2023-03-12T07:06:33;11.40;;;7.20;;
41101;SDS011;26845;50.190;19.178;2023-03-12T07:08:59;10.10;;;5.90;;
41101;SDS011;26845;50.190;19.178;2023-03-12T07:11:25;10.70;;;6.70;;
41101;SDS011;26845;50.190;19.178;2023-03-12T07:13:51;11.60;;;7.20;;
41101;SDS011;26845;50.190;19.178;2023-03-12T07:16:18;13.30;;;6.20;;
41101;SDS011;26845;50.190;19.178;2023-03-12T07:18:44;11.20;;;6.10;;
41101;SDS011;26845;50.190;19.178;2023-03-12T07:21:10;13.10;;;6.70;;
41101;SDS011;26845;50.190;19.178;2023-03-12T07:23:36;12.90;;;6.90;;
41101;SDS011;26845;50.190;19.178;2023-03-12T07:26:05;13.80;;;7.40;;
41101;SDS011;26845;50.190;19.178;2023-03-12T07:28:31;10.90;;;5.20;;
41101;SDS011;26845;50.190;19.178;2023-03-12T07:31:01;15.00;;;8.40;;
41101;SDS011;26845;50.190;19.178;2023-03-12T07:33:28;14.50;;;8.70;;
41101;SDS011;26845;50.190;19.178;2023-03-12T07:35:54;13.80;;;8.40;;
41101;SDS011;26845;50.190;19.178;2023-03-12T07:38:21;11.20;;;5.50;;
41101;SDS011;26845;50.190;19.178;2023-03-12T07:40:50;16.30;;;9.40;;
41101;SDS011;26845;50.190;19.178;2023-03-12T07:43:17;19.60;;;8.80;;
41101;SDS011;26845;50.190;19.178;2023-03-12T07:45:44;13.10;;;7.40;;
41101;SDS011;26845;50.190;19.178;2023-03-12T07:48:11;13.20;;;8.30;;
41101;SDS011;26845;50.190;19.178;2023-03-12T07:50:37;12.30;;;8.00;;
41101;SDS011;26845;50.190;19.178;2023-03-12T07:53:03;16.40;;;8.70;;
41101;SDS011;26845;50.190;19.178;2023-03-12T07:55:30;8.40;;;4.80;;
41101;SDS011;26845;50.190;19.178;2023-03-12T07:57:57;12.10;;;7.30;;
41101;SDS011;26845;50.190;19.178;2023-03-12T08:00:24;11.80;;;7.60;;
41101;SDS011;26845;50.190;19.178;2023-03-12T08:02:50;12.00;;;6.60;;
41101;SDS011;26845;50.190;19.178;2023-03-12T08:05:17;9.80;;;5.60;;
41101;SDS011;26845;50.190;19.178;2023-03-12T08:07:43;12.40;;;6.80;;
41101;SDS011;26845;50.190;19.178;2023-03-12T08:10:09;11.70;;;6.40;;
41101;SDS011;26845;50.190;19.178;2023-03-12T08:12:36;11.50;;;6.20;;
41101;SDS011;26845;50.190;19.178;2023-03-12T08:15:03;12.30;;;6.70;;
41101;SDS011;26845;50.190;19.178;2023-03-12T08:17:30;12.10;;;7.00;;
41101;SDS011;26845;50.190;19.178;2023-03-12T08:19:56;9.80;;;6.70;;
41101;SDS011;26845;50.190;19.178;2023-03-12T08:22:22;12.70;;;7.00;;
41101;SDS011;26845;50.190;19.178;2023-03-12T08:24:48;13.60;;;6.20;;
41101;SDS011;26845;50.190;19.178;2023-03-12T08:27:17;10.30;;;4.60;;
41101;SDS011;26845;50.190;19.178;2023-03-12T08:29:43;6.70;;;3.90;;
41101;SDS011;26845;50.190;19.178;2023-03-12T08:32:09;10.50;;;6.50;;
41101;SDS011;26845;50.190;19.178;2023-03-12T08:34:36;7.80;;;3.70;;
41101;SDS011;26845;50.190;19.178;2023-03-12T08:37:02;10.60;;;5.50;;
41101;SDS011;26845;50.190;19.178;2023-03-12T08:39:28;11.10;;;5.00;;
41101;SDS011;26845;50.190;19.178;2023-03-12T08:41:55;9.90;;;5.30;;
41101;SDS011;26845;50.190;19.178;2023-03-12T08:44:21;7.80;;;4.60;;
41101;SDS011;26845;50.190;19.178;2023-03-12T08:46:48;9.30;;;4.80;;
41101;SDS011;26845;50.190;19.178;2023-03-12T08:49:14;11.00;;;6.60;;
41101;SDS011;26845;50.190;19.178;2023-03-12T08:51:42;11.60;;;7.00;;
41101;SDS011;26845;50.190;19.178;2023-03-12T08:54:08;11.20;;;5.10;;
41101;SDS011;26845;50.190;19.178;2023-03-12T08:56:34;8.60;;;4.70;;
41101;SDS011;26845;50.190;19.178;2023-03-12T08:59:05;8.10;;;4.70;;
41101;SDS011;26845;50.190;19.178;2023-03-12T09:01:31;14.50;;;5.40;;
41101;SDS011;26845;50.190;19.178;2023-03-12T09:03:57;9.20;;;4.60;;
41101;SDS011;26845;50.190;19.178;2023-03-12T09:06:24;13.20;;;6.20;;
41101;SDS011;26845;50.190;19.178;2023-03-12T09:08:50;12.40;;;6.00;;
41101;SDS011;26845;50.190;19.178;2023-03-12T09:11:16;7.50;;;4.40;;
41101;SDS011;26845;50.190;19.178;2023-03-12T09:13:44;13.40;;;6.80;;
41101;SDS011;26845;50.190;19.178;2023-03-12T09:16:10;13.70;;;6.90;;
41101;SDS011;26845;50.190;19.178;2023-03-12T09:18:36;11.90;;;6.90;;
41101;SDS011;26845;50.190;19.178;2023-03-12T09:21:03;13.20;;;7.30;;
41101;SDS011;26845;50.190;19.178;2023-03-12T09:23:29;12.70;;;6.20;;
41101;SDS011;26845;50.190;19.178;2023-03-12T09:25:55;10.50;;;6.00;;
41101;SDS011;26845;50.190;19.178;2023-03-12T09:28:21;12.40;;;6.70;;
41101;SDS011;26845;50.190;19.178;2023-03-12T09:30:47;16.20;;;7.90;;
41101;SDS011;26845;50.190;19.178;2023-03-12T09:33:14;11.10;;;6.30;;
41101;SDS011;26845;50.190;19.178;2023-03-12T09:35:40;9.90;;;5.50;;
41101;SDS011;26845;50.190;19.178;2023-03-12T09:38:07;12.60;;;6.50;;
41101;SDS011;26845;50.190;19.178;2023-03-12T09:40:36;11.10;;;6.30;;
41101;SDS011;26845;50.190;19.178;2023-03-12T09:43:08;14.60;;;6.80;;
41101;SDS011;26845;50.190;19.178;2023-03-12T09:45:41;9.70;;;4.50;;
41101;SDS011;26845;50.190;19.178;2023-03-12T09:48:13;10.00;;;5.80;;
41101;SDS011;26845;50.190;19.178;2023-03-12T09:50:45;8.40;;;3.30;;
41101;SDS011;26845;50.190;19.178;2023-03-12T09:55:59;11.10;;;5.80;;
41101;SDS011;26845;50.190;19.178;2023-03-12T09:58:29;10.50;;;5.20;;
41101;SDS011;26845;50.190;19.178;2023-03-12T10:06:35;12.50;;;5.70;;
41101;SDS011;26845;50.190;19.178;2023-03-12T10:09:20;11.00;;;5.20;;
41101;SDS011;26845;50.190;19.178;2023-03-12T10:12:11;6.20;;;3.40;;
41101;SDS011;26845;50.190;19.178;2023-03-12T10:15:02;10.90;;;5.30;;
41101;SDS011;26845;50.190;19.178;2023-03-12T10:21:04;10.40;;;4.50;;
41101;SDS011;26845;50.190;19.178;2023-03-12T10:26:28;12.10;;;5.50;;
41101;SDS011;26845;50.190;19.178;2023-03-12T10:28:59;10.70;;;5.20;;
41101;SDS011;26845;50.190;19.178;2023-03-12T10:31:35;12.50;;;5.70;;
41101;SDS011;26845;50.190;19.178;2023-03-12T10:34:13;11.80;;;5.50;;
41101;SDS011;26845;50.190;19.178;2023-03-12T10:36:47;5.60;;;3.80;;
41101;SDS011;26845;50.190;19.178;2023-03-12T10:39:14;8.00;;;4.90;;
41101;SDS011;26845;50.190;19.178;2023-03-12T10:41:43;7.90;;;3.50;;
41101;SDS011;26845;50.190;19.178;2023-03-12T10:44:22;9.90;;;5.90;;
41101;SDS011;26845;50.190;19.178;2023-03-12T10:49:27;8.60;;;4.20;;
41101;SDS011;26845;50.190;19.178;2023-03-12T10:51:57;8.40;;;3.90;;
41101;SDS011;26845;50.190;19.178;2023-03-12T10:54:30;7.90;;;4.50;;
41101;SDS011;26845;50.190;19.178;2023-03-12T10:56:58;8.90;;;4.90;;
41101;SDS011;26845;50.190;19.178;2023-03-12T10:59:26;8.70;;;4.90;;
41101;SDS011;26845;50.190;19.178;2023-03-12T11:01:54;9.90;;;4.40;;
41101;SDS011;26845;50.190;19.178;2023-03-12T11:04:22;8.50;;;2.90;;
41101;SDS011;26845;50.190;19.178;2023-03-12T11:16:19;2.60;;;1.70;;
41101;SDS011;26845;50.190;19.178;2023-03-12T11:18:52;7.50;;;4.40;;
41101;SDS011;26845;50.190;19.178;2023-03-12T11:21:26;13.10;;;4.60;;
41101;SDS011;26845;50.190;19.178;2023-03-12T11:24:03;9.00;;;4.50;;
41101;SDS011;26845;50.190;19.178;2023-03-12T11:29:23;9.20;;;3.20;;
41101;SDS011;26845;50.190;19.178;2023-03-12T11:32:02;7.80;;;3.20;;
41101;SDS011;26845;50.190;19.178;2023-03-12T11:34:38;7.40;;;3.60;;
41101;SDS011;26845;50.190;19.178;2023-03-12T11:46:22;3.70;;;2.20;;
41101;SDS011;26845;50.190;19.178;2023-03-12T11:52:04;6.90;;;2.90;;
41101;SDS011;26845;50.190;19.178;2023-03-12T11:57:05;5.60;;;1.80;;
41101;SDS011;26845;50.190;19.178;2023-03-12T11:59:54;3.60;;;2.00;;
41101;SDS011;26845;50.190;19.178;2023-03-12T12:10:38;6.10;;;2.30;;
41101;SDS011;26845;50.190;19.178;2023-03-12T12:13:17;2.70;;;1.40;;
41101;SDS011;26845;50.190;19.178;2023-03-12T12:16:12;6.10;;;2.70;;
41101;SDS011;26845;50.190;19.178;2023-03-12T12:27:24;8.70;;;2.70;;
41101;SDS011;26845;50.190;19.178;2023-03-12T12:36:06;7.90;;;2.10;;
41101;SDS011;26845;50.190;19.178;2023-03-12T12:38:35;7.40;;;2.50;;
41101;SDS011;26845;50.190;19.178;2023-03-12T12:41:26;6.00;;;2.70;;
41101;SDS011;26845;50.190;19.178;2023-03-12T12:44:04;4.00;;;2.60;;
41101;SDS011;26845;50.190;19.178;2023-03-12T12:46:49;6.40;;;3.30;;
41101;SDS011;26845;50.190;19.178;2023-03-12T12:49:40;4.80;;;2.80;;
41101;SDS011;26845;50.190;19.178;2023-03-12T12:52:15;7.00;;;3.20;;
41101;SDS011;26845;50.190;19.178;2023-03-12T12:57:38;6.20;;;2.70;;
41101;SDS011;26845;50.190;19.178;2023-03-12T13:02:50;5.60;;;2.80;;
41101;SDS011;26845;50.190;19.178;2023-03-12T13:05:22;3.90;;;2.00;;
41101;SDS011;26845;50.190;19.178;2023-03-12T13:07:52;5.60;;;2.40;;
41101;SDS011;26845;50.190;19.178;2023-03-12T13:13:20;4.60;;;2.30;;
41101;SDS011;26845;50.190;19.178;2023-03-12T13:15:48;3.40;;;2.30;;
41101;SDS011;26845;50.190;19.178;2023-03-12T13:18:19;4.80;;;1.70;;
41101;SDS011;26845;50.190;19.178;2023-03-12T13:23:25;4.60;;;2.10;;
41101;SDS011;26845;50.190;19.178;2023-03-12T13:26:49;5.70;;;2.10;;
41101;SDS011;26845;50.190;19.178;2023-03-12T13:32:08;6.90;;;2.50;;
41101;SDS011;26845;50.190;19.178;2023-03-12T13:34:55;7.80;;;3.30;;
41101;SDS011;26845;50.190;19.178;2023-03-12T13:37:29;8.30;;;3.20;;
41101;SDS011;26845;50.190;19.178;2023-03-12T13:48:30;6.50;;;3.20;;
41101;SDS011;26845;50.190;19.178;2023-03-12T13:51:00;18.50;;;6.50;;
41101;SDS011;26845;50.190;19.178;2023-03-12T13:53:36;9.00;;;4.00;;
41101;SDS011;26845;50.190;19.178;2023-03-12T13:56:11;7.20;;;3.90;;
41101;SDS011;26845;50.190;19.178;2023-03-12T14:01:31;7.00;;;3.40;;
41101;SDS011;26845;50.190;19.178;2023-03-12T14:04:14;6.70;;;3.70;;
41101;SDS011;26845;50.190;19.178;2023-03-12T14:09:35;11.60;;;4.90;;
41101;SDS011;26845;50.190;19.178;2023-03-12T14:12:46;12.60;;;5.80;;
41101;SDS011;26845;50.190;19.178;2023-03-12T14:15:17;13.60;;;5.50;;
41101;SDS011;26845;50.190;19.178;2023-03-12T14:18:11;19.90;;;5.30;;
41101;SDS011;26845;50.190;19.178;2023-03-12T14:20:42;5.20;;;2.50;;
41101;SDS011;26845;50.190;19.178;2023-03-12T14:23:17;5.80;;;3.40;;
41101;SDS011;26845;50.190;19.178;2023-03-12T14:25:44;4.80;;;3.10;;
41101;SDS011;26845;50.190;19.178;2023-03-12T14:28:14;5.20;;;3.30;;
41101;SDS011;26845;50.190;19.178;2023-03-12T14:30:47;5.70;;;3.40;;
41101;SDS011;26845;50.190;19.178;2023-03-12T14:33:20;4.30;;;2.80;;
41101;SDS011;26845;50.190;19.178;2023-03-12T14:36:07;4.40;;;3.00;;
41101;SDS011;26845;50.190;19.178;2023-03-12T14:38:42;5.80;;;3.50;;
41101;SDS011;26845;50.190;19.178;2023-03-12T14:41:11;8.00;;;3.60;;
41101;SDS011;26845;50.190;19.178;2023-03-12T14:43:44;8.40;;;4.80;;
41101;SDS011;26845;50.190;19.178;2023-03-12T14:46:14;6.50;;;3.60;;
41101;SDS011;26845;50.190;19.178;2023-03-12T14:48:42;4.50;;;3.20;;
41101;SDS011;26845;50.190;19.178;2023-03-12T14:51:24;7.40;;;3.40;;
41101;SDS011;26845;50.190;19.178;2023-03-12T14:53:52;4.50;;;2.80;;
41101;SDS011;26845;50.190;19.178;2023-03-12T14:56:25;5.50;;;3.30;;
41101;SDS011;26845;50.190;19.178;2023-03-12T14:58:55;7.00;;;3.70;;
41101;SDS011;26845;50.190;19.178;2023-03-12T15:01:25;8.40;;;4.10;;
41101;SDS011;26845;50.190;19.178;2023-03-12T15:04:05;7.20;;;4.10;;
41101;SDS011;26845;50.190;19.178;2023-03-12T15:06:41;5.70;;;3.50;;
41101;SDS011;26845;50.190;19.178;2023-03-12T15:09:17;6.00;;;4.00;;
41101;SDS011;26845;50.190;19.178;2023-03-12T15:11:47;5.60;;;3.10;;
41101;SDS011;26845;50.190;19.178;2023-03-12T15:14:17;5.90;;;3.50;;
41101;SDS011;26845;50.190;19.178;2023-03-12T15:16:45;7.80;;;4.60;;
41101;SDS011;26845;50.190;19.178;2023-03-12T15:19:11;9.10;;;4.70;;
41101;SDS011;26845;50.190;19.178;2023-03-12T15:21:39;6.70;;;4.10;;
41101;SDS011;26845;50.190;19.178;2023-03-12T15:24:05;7.00;;;4.50;;
41101;SDS011;26845;50.190;19.178;2023-03-12T15:26:34;6.40;;;3.80;;
41101;SDS011;26845;50.190;19.178;2023-03-12T15:31:40;6.50;;;4.10;;
41101;SDS011;26845;50.190;19.178;2023-03-12T15:34:11;9.00;;;4.00;;
41101;SDS011;26845;50.190;19.178;2023-03-12T15:36:50;9.00;;;4.30;;
41101;SDS011;26845;50.190;19.178;2023-03-12T15:41:59;6.90;;;4.00;;
41101;SDS011;26845;50.190;19.178;2023-03-12T15:44:27;8.30;;;4.10;;
41101;SDS011;26845;50.190;19.178;2023-03-12T15:47:04;7.70;;;4.10;;
41101;SDS011;26845;50.190;19.178;2023-03-12T15:49:34;4.60;;;3.40;;
41101;SDS011;26845;50.190;19.178;2023-03-12T15:57:29;5.90;;;3.40;;
41101;SDS011;26845;50.190;19.178;2023-03-12T16:02:37;8.30;;;4.40;;
41101;SDS011;26845;50.190;19.178;2023-03-12T16:05:04;7.10;;;4.40;;
41101;SDS011;26845;50.190;19.178;2023-03-12T16:07:30;8.80;;;4.70;;
41101;SDS011;26845;50.190;19.178;2023-03-12T16:09:56;8.00;;;4.10;;
41101;SDS011;26845;50.190;19.178;2023-03-12T16:12:23;7.90;;;4.30;;
41101;SDS011;26845;50.190;19.178;2023-03-12T16:14:49;6.60;;;4.40;;
41101;SDS011;26845;50.190;19.178;2023-03-12T16:17:15;5.40;;;3.80;;
41101;SDS011;26845;50.190;19.178;2023-03-12T16:19:42;7.40;;;3.90;;
41101;SDS011;26845;50.190;19.178;2023-03-12T16:22:08;8.00;;;4.60;;
41101;SDS011;26845;50.190;19.178;2023-03-12T16:24:34;10.80;;;4.90;;
41101;SDS011;26845;50.190;19.178;2023-03-12T16:27:00;8.10;;;4.20;;
41101;SDS011;26845;50.190;19.178;2023-03-12T16:31:58;7.80;;;4.70;;
41101;SDS011;26845;50.190;19.178;2023-03-12T16:34:25;8.50;;;4.60;;
41101;SDS011;26845;50.190;19.178;2023-03-12T16:36:51;7.10;;;4.90;;
41101;SDS011;26845;50.190;19.178;2023-03-12T16:39:17;6.00;;;4.40;;